createdAt,value
2023-11-02T00:00:58.730Z,43.05
2023-11-02T00:03:45.749Z,48.00
2023-11-02T00:06:26.696Z,45.90
2023-11-02T00:09:22.636Z,44.00
2023-11-02T00:11:55.891Z,42.83
2023-11-02T00:14:28.215Z,40.78
2023-11-02T00:16:59.025Z,51.50
2023-11-02T00:19:32.943Z,36.75
2023-11-02T00:22:08.661Z,43.08
2023-11-02T00:24:38.977Z,35.90
2023-11-02T00:27:10.333Z,33.93
2023-11-02T00:29:40.532Z,39.20
2023-11-02T00:32:10.495Z,37.65
2023-11-02T00:34:41.020Z,37.22
2023-11-02T00:37:11.371Z,36.28
2023-11-02T00:39:40.665Z,35.13
2023-11-02T00:42:12.941Z,34.92
2023-11-02T00:44:42.462Z,35.67
2023-11-02T00:47:11.868Z,30.05
2023-11-02T00:49:40.954Z,39.92
2023-11-02T00:52:10.523Z,35.92
2023-11-02T00:54:56.988Z,39.10
2023-11-02T00:57:31.099Z,34.20
2023-11-02T01:00:00.276Z,35.13
2023-11-02T01:02:36.821Z,33.35
2023-11-02T01:05:20.438Z,36.67
2023-11-02T01:07:49.837Z,33.05
2023-11-02T01:10:20.914Z,30.83
2023-11-02T01:12:52.091Z,34.03
2023-11-02T01:15:56.201Z,29.02
2023-11-02T01:18:25.531Z,29.17
2023-11-02T01:21:02.072Z,36.55
2023-11-02T01:23:32.145Z,33.58
2023-11-02T01:26:03.098Z,35.25
2023-11-02T01:28:55.634Z,34.78
2023-11-02T01:31:24.831Z,31.30
2023-11-02T01:34:01.507Z,28.30
2023-11-02T01:36:39.527Z,33.17
2023-11-02T01:39:38.632Z,29.15
2023-11-02T01:42:12.597Z,35.83
2023-11-02T01:44:49.689Z,29.38
2023-11-02T01:47:37.667Z,26.40
2023-11-02T01:50:14.461Z,27.40
2023-11-02T01:52:59.188Z,32.72
2023-11-02T01:55:42.849Z,27.35
2023-11-02T01:58:22.965Z,27.27
2023-11-02T02:01:09.996Z,29.45
2023-11-02T02:03:48.344Z,27.27
2023-11-02T02:06:25.996Z,32.80
2023-11-02T02:09:08.390Z,28.02
2023-11-02T02:11:45.032Z,26.35
2023-11-02T02:14:24.663Z,31.77
2023-11-02T02:17:03.437Z,28.50
2023-11-02T02:19:56.700Z,31.08
2023-11-02T02:22:30.314Z,34.42
2023-11-02T02:25:08.029Z,30.85
2023-11-02T02:27:58.010Z,27.25
2023-11-02T02:31:04.385Z,30.02
2023-11-02T02:33:54.619Z,30.25
2023-11-02T02:36:34.344Z,27.65
2023-11-02T02:39:07.254Z,30.45
2023-11-02T02:41:41.361Z,28.83
2023-11-02T02:44:12.282Z,32.90
2023-11-02T02:46:42.811Z,34.07
2023-11-02T02:49:12.228Z,28.30
2023-11-02T02:51:47.953Z,29.55
2023-11-02T02:54:19.284Z,30.08
2023-11-02T02:56:50.352Z,31.58
2023-11-02T02:59:22.676Z,32.78
2023-11-02T03:01:57.196Z,31.63
2023-11-02T03:04:28.218Z,30.90
2023-11-02T03:06:58.777Z,32.13
2023-11-02T03:09:33.158Z,39.50
2023-11-02T03:12:05.767Z,31.65
2023-11-02T03:14:39.768Z,31.92
2023-11-02T03:17:21.936Z,31.88
2023-11-02T03:19:52.570Z,36.58
2023-11-02T03:22:25.873Z,34.60
2023-11-02T03:25:10.072Z,29.45
2023-11-02T03:27:55.546Z,39.45
2023-11-02T03:30:37.563Z,30.67
2023-11-02T03:33:18.221Z,37.80
2023-11-02T03:35:59.228Z,34.78
2023-11-02T03:38:39.087Z,37.47
2023-11-02T03:41:19.076Z,39.47
2023-11-02T03:43:58.416Z,37.22
2023-11-02T03:46:43.212Z,35.28
2023-11-02T03:49:25.164Z,36.72
2023-11-02T03:52:05.857Z,34.20
2023-11-02T03:54:59.122Z,34.40
2023-11-02T03:57:32.782Z,36.97
2023-11-02T04:00:10.631Z,39.35
2023-11-02T04:02:47.749Z,41.80
2023-11-02T04:05:22.615Z,36.47
2023-11-02T04:08:00.247Z,44.67
2023-11-02T04:10:32.882Z,40.92
2023-11-02T04:13:09.816Z,41.67
2023-11-02T04:15:38.901Z,37.05
2023-11-02T04:18:08.239Z,48.67
2023-11-02T04:20:38.690Z,43.40
2023-11-02T04:23:08.085Z,37.80
2023-11-02T04:25:38.395Z,42.88
2023-11-02T04:28:08.073Z,54.33
2023-11-02T04:30:37.913Z,42.83
2023-11-02T04:33:08.156Z,43.78
2023-11-02T04:35:37.935Z,42.72
2023-11-02T04:38:08.429Z,37.28
2023-11-02T04:40:41.119Z,43.58
2023-11-02T04:43:10.766Z,46.03
2023-11-02T04:45:39.942Z,42.03
2023-11-02T04:48:09.534Z,38.17
2023-11-02T04:50:40.414Z,43.05
2023-11-02T04:53:09.874Z,40.30
2023-11-02T04:55:42.409Z,44.15
2023-11-02T04:58:11.813Z,39.53
2023-11-02T05:00:39.984Z,42.33
2023-11-02T05:03:09.391Z,39.58
2023-11-02T05:05:38.761Z,40.58
2023-11-02T05:08:10.257Z,37.85
2023-11-02T05:10:40.609Z,39.42
2023-11-02T05:13:09.870Z,36.53
2023-11-02T05:15:54.068Z,37.65
2023-11-02T05:18:26.262Z,38.20
2023-11-02T05:20:59.213Z,33.90
2023-11-02T05:23:28.893Z,33.47
2023-11-02T05:25:59.210Z,36.08
2023-11-02T05:28:29.134Z,32.27
2023-11-02T05:30:58.131Z,33.45
2023-11-02T05:33:27.595Z,29.75
2023-11-02T05:35:56.616Z,37.40
2023-11-02T05:38:26.025Z,30.02
2023-11-02T05:40:55.018Z,31.45
2023-11-02T05:43:25.740Z,33.55
2023-11-02T05:45:54.798Z,35.65
2023-11-02T05:48:26.154Z,36.63
2023-11-02T05:50:55.353Z,34.05
2023-11-02T05:53:24.653Z,38.47
2023-11-02T05:55:53.817Z,33.92
2023-11-02T05:58:24.598Z,38.53
2023-11-02T06:00:53.675Z,32.70
2023-11-02T06:03:23.094Z,36.58
2023-11-02T06:05:52.134Z,35.08
2023-11-02T06:08:21.975Z,33.67
2023-11-02T06:10:51.040Z,36.78
2023-11-02T06:13:20.317Z,33.70
2023-11-02T06:15:50.702Z,31.77
2023-11-02T06:18:20.267Z,35.00
2023-11-02T06:20:49.283Z,32.22
2023-11-02T06:23:18.593Z,30.35
2023-11-02T06:25:47.867Z,32.60
2023-11-02T06:28:18.930Z,29.25
2023-11-02T06:30:50.255Z,26.02
2023-11-02T06:33:26.030Z,33.22
2023-11-02T06:35:55.770Z,34.70
2023-11-02T06:38:25.102Z,31.30
2023-11-02T06:40:54.153Z,29.52
2023-11-02T06:43:23.395Z,29.92
2023-11-02T06:45:53.683Z,27.20
2023-11-02T06:48:23.429Z,24.87
2023-11-02T06:50:52.529Z,31.90
2023-11-02T06:53:21.886Z,30.42
2023-11-02T06:55:50.782Z,28.77
2023-11-02T06:58:21.034Z,27.75
2023-11-02T07:00:52.274Z,26.55
2023-11-02T07:03:21.686Z,30.90
2023-11-02T07:05:50.698Z,28.60
2023-11-02T07:08:20.052Z,28.40
2023-11-02T07:10:49.097Z,34.50
2023-11-02T07:13:20.072Z,28.35
2023-11-02T07:15:50.468Z,26.67
2023-11-02T07:18:21.384Z,27.70
2023-11-02T07:20:50.597Z,26.42
2023-11-02T07:23:20.087Z,27.35
2023-11-02T07:25:49.268Z,26.73
2023-11-02T07:28:18.608Z,31.08
2023-11-02T07:30:47.781Z,28.17
2023-11-02T07:33:17.295Z,28.40
2023-11-02T07:35:47.676Z,29.98
2023-11-02T07:38:18.180Z,29.90
2023-11-02T07:40:47.838Z,31.30
2023-11-02T07:43:17.114Z,28.02
2023-11-02T07:45:46.194Z,34.85
2023-11-02T07:48:15.993Z,29.92
2023-11-02T07:50:46.441Z,32.42
2023-11-02T07:53:16.220Z,27.90
2023-11-02T07:55:45.324Z,26.75
2023-11-02T07:58:15.411Z,27.08
2023-11-02T08:00:44.527Z,25.85
2023-11-02T08:03:13.923Z,25.08
2023-11-02T08:05:43.038Z,29.33
2023-11-02T08:08:13.641Z,24.52
2023-11-02T08:10:42.852Z,23.05
2023-11-02T08:13:12.470Z,25.23
2023-11-02T08:15:43.327Z,27.88
2023-11-02T08:18:12.923Z,23.60
2023-11-02T08:20:41.933Z,25.98
2023-11-02T08:23:12.702Z,24.60
2023-11-02T08:25:42.767Z,26.73
2023-11-02T08:28:12.199Z,26.40
2023-11-02T08:30:41.336Z,25.48
2023-11-02T08:33:12.902Z,25.70
2023-11-02T08:35:42.207Z,24.38
2023-11-02T08:38:13.373Z,22.23
2023-11-02T08:40:42.561Z,27.88
2023-11-02T08:43:11.971Z,28.25
2023-11-02T08:45:41.047Z,25.15
2023-11-02T08:48:10.419Z,26.30
2023-11-02T08:50:39.624Z,21.98
2023-11-02T08:53:09.001Z,26.77
2023-11-02T08:55:40.201Z,22.23
2023-11-02T09:00:38.636Z,24.45
2023-11-02T09:03:08.126Z,21.88
2023-11-02T09:05:37.163Z,22.15
2023-11-02T09:08:06.617Z,21.90
2023-11-02T09:10:35.803Z,22.88
2023-11-02T09:13:07.421Z,23.33
2023-11-02T09:15:36.597Z,21.73
2023-11-02T09:18:06.170Z,18.92
2023-11-02T09:20:35.240Z,17.50
2023-11-02T09:23:04.897Z,21.70
2023-11-02T09:25:35.696Z,20.23
2023-11-02T09:28:06.573Z,17.23
2023-11-02T09:30:35.706Z,19.87
2023-11-02T09:33:05.286Z,22.63
2023-11-02T09:35:34.376Z,20.55
2023-11-02T09:38:04.523Z,21.27
2023-11-02T09:40:34.699Z,20.98
2023-11-02T09:43:06.910Z,22.17
2023-11-02T09:45:38.391Z,20.33
2023-11-02T09:48:08.173Z,18.58
2023-11-02T09:50:37.477Z,24.23
2023-11-02T09:53:09.521Z,20.05
2023-11-02T09:55:42.618Z,19.58
2023-11-02T09:58:18.840Z,21.33
2023-11-02T10:00:49.193Z,22.48
2023-11-02T10:03:18.916Z,18.45
2023-11-02T10:05:48.210Z,19.90
2023-11-02T10:08:17.488Z,15.32
2023-11-02T10:10:48.264Z,15.25
2023-11-02T10:13:19.293Z,16.73
2023-11-02T10:15:48.586Z,15.77
2023-11-02T10:18:19.195Z,17.65
2023-11-02T10:20:48.234Z,18.50
2023-11-02T10:23:17.503Z,14.77
2023-11-02T10:25:46.549Z,15.50
2023-11-02T10:28:16.362Z,18.00
2023-11-02T10:30:47.566Z,17.90
2023-11-02T10:33:18.946Z,17.73
2023-11-02T10:35:50.969Z,15.02
2023-11-02T10:38:23.532Z,13.95
2023-11-02T10:40:52.676Z,12.85
2023-11-02T10:43:23.163Z,16.08
2023-11-02T10:45:54.862Z,14.32
2023-11-02T10:48:26.412Z,13.60
2023-11-02T10:50:58.644Z,14.05
2023-11-02T10:53:41.294Z,14.43
2023-11-02T10:56:17.315Z,14.40
2023-11-02T10:58:47.560Z,17.70
2023-11-02T11:01:20.258Z,13.23
2023-11-02T11:03:52.336Z,14.02
2023-11-02T11:06:24.870Z,11.60
2023-11-02T11:08:58.707Z,13.98
2023-11-02T11:11:30.852Z,13.85
2023-11-02T11:14:00.575Z,14.82
2023-11-02T11:16:33.082Z,15.00
2023-11-02T11:19:02.634Z,12.27
2023-11-02T11:21:33.672Z,14.00
2023-11-02T11:24:12.870Z,15.85
2023-11-02T11:26:48.806Z,13.80
2023-11-02T11:29:35.499Z,13.43
2023-11-02T11:32:07.967Z,13.57
2023-11-02T11:35:14.141Z,13.38
2023-11-02T11:37:46.775Z,12.48
2023-11-02T11:40:35.747Z,11.88
2023-11-02T11:43:14.490Z,10.55
2023-11-02T11:45:52.607Z,12.25
2023-11-02T11:48:41.184Z,12.45
2023-11-02T11:51:40.739Z,12.93
2023-11-02T11:54:11.989Z,13.77
2023-11-02T11:56:41.509Z,15.38
2023-11-02T11:59:11.591Z,12.75
2023-11-02T12:01:40.949Z,11.15
2023-11-02T12:04:11.631Z,11.88
2023-11-02T12:06:45.013Z,11.95
2023-11-02T12:09:17.361Z,12.50
2023-11-02T12:11:46.734Z,15.27
2023-11-02T12:14:19.630Z,15.43
2023-11-02T12:16:52.448Z,10.73
2023-11-02T12:19:22.918Z,14.20
2023-11-02T12:21:59.484Z,10.87
2023-11-02T12:24:28.580Z,10.85
2023-11-02T12:27:11.883Z,13.60
2023-11-02T12:29:41.080Z,9.63
2023-11-02T12:32:11.318Z,9.65
2023-11-02T12:34:41.682Z,10.52
2023-11-02T12:37:11.028Z,10.38
2023-11-02T12:39:40.148Z,10.27
2023-11-02T12:42:11.263Z,10.57
2023-11-02T12:44:46.721Z,8.25
2023-11-02T12:47:16.184Z,10.07
2023-11-02T12:49:46.673Z,8.25
2023-11-02T12:52:15.986Z,10.10
2023-11-02T12:54:58.505Z,8.10
2023-11-02T12:57:28.012Z,9.50
2023-11-02T12:59:58.014Z,13.85
2023-11-02T13:02:28.005Z,10.80
2023-11-02T13:04:59.813Z,13.18
2023-11-02T13:07:30.305Z,9.82
2023-11-02T13:10:05.081Z,8.48
2023-11-02T13:12:35.859Z,9.20
2023-11-02T13:17:40.080Z,9.05
2023-11-02T13:20:12.003Z,9.77
2023-11-02T13:22:42.493Z,7.88
2023-11-02T13:25:11.955Z,9.82
2023-11-02T13:27:41.538Z,10.15
2023-11-02T13:30:12.394Z,14.35
2023-11-02T13:32:42.268Z,8.90
2023-11-02T13:35:12.827Z,10.38
2023-11-02T13:37:42.757Z,8.35
2023-11-02T13:40:13.995Z,7.65
2023-11-02T13:42:47.360Z,7.65
2023-11-02T13:45:16.656Z,8.88
2023-11-02T13:47:47.453Z,8.10
2023-11-02T13:50:18.614Z,7.23
2023-11-02T13:52:48.059Z,8.80
2023-11-02T13:55:17.197Z,8.13
2023-11-02T13:57:46.791Z,14.38
2023-11-02T14:00:17.372Z,9.13
2023-11-02T14:02:47.399Z,8.75
2023-11-02T14:05:18.737Z,11.15
2023-11-02T14:07:48.803Z,6.80
2023-11-02T14:10:18.067Z,10.13
2023-11-02T14:12:48.479Z,8.60
2023-11-02T14:15:17.608Z,10.25
2023-11-02T14:17:47.274Z,8.82
2023-11-02T14:20:18.145Z,12.45
2023-11-02T14:22:47.695Z,10.52
2023-11-02T14:25:16.610Z,26.38
2023-11-02T14:27:46.040Z,9.18
2023-11-02T14:30:16.360Z,12.50
2023-11-02T14:32:48.037Z,9.68
2023-11-02T14:35:19.711Z,9.00
2023-11-02T14:37:49.145Z,8.65
2023-11-02T14:40:19.534Z,10.15
2023-11-02T14:42:48.960Z,11.75
2023-11-02T14:45:20.509Z,10.20
2023-11-02T14:47:52.332Z,10.38
2023-11-02T14:50:26.060Z,14.05
2023-11-02T14:52:55.639Z,9.85
2023-11-02T14:55:24.833Z,13.60
2023-11-02T14:57:54.265Z,11.15
2023-11-02T15:00:23.900Z,12.85
2023-11-02T15:02:53.295Z,12.10
2023-11-02T15:05:23.795Z,15.88
2023-11-02T15:07:53.284Z,13.13
2023-11-02T15:10:22.443Z,13.18
2023-11-02T15:12:51.855Z,14.50
2023-11-02T15:15:21.225Z,12.52
2023-11-02T15:17:50.705Z,15.68
2023-11-02T15:20:22.202Z,11.15
2023-11-02T15:22:57.008Z,15.05
2023-11-02T15:25:26.571Z,20.13
2023-11-02T15:27:56.185Z,13.27
2023-11-02T15:30:25.376Z,11.93
2023-11-02T15:32:54.730Z,14.80
2023-11-02T15:35:23.783Z,19.90
2023-11-02T15:37:53.131Z,14.38
2023-11-02T15:40:23.484Z,20.52
2023-11-02T15:42:54.502Z,14.00
2023-11-02T15:45:24.161Z,14.50
2023-11-02T15:47:53.747Z,16.67
2023-11-02T15:50:22.784Z,13.95
2023-11-02T15:52:53.236Z,19.77
2023-11-02T15:55:24.649Z,12.63
2023-11-02T15:57:54.064Z,14.30
2023-11-02T16:00:23.666Z,16.58
2023-11-02T16:02:53.068Z,18.40
2023-11-02T16:05:22.190Z,28.17
2023-11-02T16:07:51.513Z,25.83
2023-11-02T16:10:22.309Z,28.92
2023-11-02T16:12:51.679Z,22.13
2023-11-02T16:15:22.418Z,16.92
2023-11-02T16:17:52.622Z,18.15
2023-11-02T16:20:21.810Z,16.27
2023-11-02T16:22:51.103Z,17.70
2023-11-02T16:25:21.537Z,17.95
2023-11-02T16:27:52.601Z,18.52
2023-11-02T16:30:21.711Z,15.68
2023-11-02T16:32:51.264Z,15.15
2023-11-02T16:35:30.973Z,14.20
2023-11-02T16:38:05.715Z,14.68
2023-11-02T16:40:35.431Z,14.98
2023-11-02T16:43:06.315Z,15.57
2023-11-02T16:45:38.059Z,17.27
2023-11-02T16:48:08.690Z,17.73
2023-11-02T16:50:38.975Z,18.63
2023-11-02T16:53:08.332Z,19.80
2023-11-02T16:55:42.103Z,15.25
2023-11-02T16:58:12.941Z,22.45
2023-11-02T17:00:42.865Z,17.63
2023-11-02T17:03:13.835Z,20.90
2023-11-02T17:05:44.416Z,23.20
2023-11-02T17:08:14.009Z,19.95
2023-11-02T17:10:43.041Z,18.00
2023-11-02T17:13:18.853Z,17.77
2023-11-02T17:15:48.505Z,21.05
2023-11-02T17:18:19.116Z,15.52
2023-11-02T17:20:48.520Z,16.58
2023-11-02T17:23:17.815Z,18.00
2023-11-02T17:25:46.845Z,17.02
2023-11-02T17:28:21.380Z,15.85
2023-11-02T17:30:51.273Z,18.40
2023-11-02T17:33:20.739Z,18.08
2023-11-02T17:35:49.862Z,13.10
2023-11-02T17:38:19.257Z,17.75
2023-11-02T17:40:48.785Z,18.08
2023-11-02T17:43:21.778Z,15.38
2023-11-02T17:45:50.838Z,19.90
2023-11-02T17:48:20.723Z,20.13
2023-11-02T17:50:50.956Z,17.52
2023-11-02T17:53:20.386Z,19.75
2023-11-02T17:55:50.970Z,16.13
2023-11-02T17:58:22.745Z,21.10
2023-11-02T18:00:52.733Z,22.48
2023-11-02T18:03:22.457Z,21.98
2023-11-02T18:05:52.460Z,21.30
2023-11-02T18:08:22.159Z,23.00
2023-11-02T18:10:51.990Z,23.20
2023-11-02T18:13:22.982Z,19.77
2023-11-02T18:15:55.688Z,26.80
2023-11-02T18:18:25.721Z,24.27
2023-11-02T18:20:56.397Z,23.88
2023-11-02T18:23:25.877Z,29.80
2023-11-02T18:25:55.522Z,23.88
2023-11-02T18:28:29.302Z,24.05
2023-11-02T18:30:59.068Z,19.75
2023-11-02T18:33:29.822Z,23.85
2023-11-02T18:36:10.565Z,20.00
2023-11-02T18:38:41.025Z,21.42
2023-11-02T18:41:10.113Z,23.92
2023-11-02T18:43:42.236Z,19.13
2023-11-02T18:46:19.109Z,19.20
2023-11-02T18:48:50.107Z,25.35
2023-11-02T18:51:20.403Z,21.07
2023-11-02T18:53:50.839Z,22.92
2023-11-02T18:56:20.389Z,22.40
2023-11-02T18:58:51.674Z,24.00
2023-11-02T19:01:22.446Z,27.10
2023-11-02T19:03:52.145Z,22.10
2023-11-02T19:06:21.302Z,25.23
2023-11-02T19:08:55.225Z,22.95
2023-11-02T19:13:57.431Z,23.40
2023-11-02T19:16:26.478Z,26.23
2023-11-02T19:18:59.011Z,28.05
2023-11-02T19:21:29.001Z,26.30
2023-11-02T19:24:00.539Z,30.65
2023-11-02T19:26:29.608Z,26.88
2023-11-02T19:29:00.284Z,27.73
2023-11-02T19:31:33.178Z,27.15
2023-11-02T19:34:04.307Z,29.75
2023-11-02T19:36:44.689Z,28.77
2023-11-02T19:39:17.406Z,27.52
2023-11-02T19:41:51.614Z,31.27
2023-11-02T19:44:22.451Z,31.80
2023-11-02T19:46:52.942Z,31.48
2023-11-02T19:49:34.400Z,36.00
2023-11-02T19:52:03.727Z,32.45
2023-11-02T19:54:33.709Z,37.30
2023-11-02T19:57:07.727Z,38.28
2023-11-02T19:59:40.154Z,38.22
2023-11-02T20:02:10.362Z,43.17
2023-11-02T20:04:40.017Z,41.38
2023-11-02T20:07:11.608Z,42.35
2023-11-02T20:09:43.484Z,41.63
2023-11-02T20:14:52.508Z,44.78
2023-11-02T20:17:21.831Z,46.35
2023-11-02T20:19:51.374Z,49.65
2023-11-02T20:22:21.007Z,52.40
2023-11-02T20:24:51.499Z,48.63
2023-11-02T20:27:20.650Z,41.75
2023-11-02T20:29:51.548Z,45.17
2023-11-02T20:32:20.601Z,43.75
2023-11-02T20:34:51.837Z,45.33
2023-11-02T20:37:22.947Z,46.03
2023-11-02T20:39:52.328Z,45.55
2023-11-02T20:42:22.957Z,44.67
2023-11-02T20:44:53.779Z,43.85
2023-11-02T20:47:23.059Z,46.78
2023-11-02T20:49:53.125Z,47.17
2023-11-02T20:52:26.340Z,49.03
2023-11-02T20:54:55.845Z,48.05
2023-11-02T20:57:26.516Z,48.97
2023-11-02T20:59:57.301Z,48.60
2023-11-02T21:02:29.283Z,52.67
2023-11-02T21:05:00.356Z,56.70
2023-11-02T21:07:29.448Z,52.07
2023-11-02T21:09:59.994Z,57.88
2023-11-02T21:12:31.189Z,53.00
2023-11-02T21:15:02.293Z,49.55
2023-11-02T21:17:31.424Z,46.13
2023-11-02T21:20:02.111Z,48.88
2023-11-02T21:22:31.225Z,49.28
2023-11-02T21:25:00.825Z,52.33
2023-11-02T21:27:29.976Z,56.50
2023-11-02T21:29:59.586Z,48.13
2023-11-02T21:32:30.737Z,56.78
2023-11-02T21:35:00.058Z,50.50
2023-11-02T21:37:29.091Z,46.05
2023-11-02T21:39:58.550Z,45.15
2023-11-02T21:42:27.628Z,50.03
2023-11-02T21:44:57.049Z,48.20
2023-11-02T21:47:26.078Z,40.50
2023-11-02T21:49:57.064Z,40.38
2023-11-02T21:52:26.996Z,38.33
2023-11-02T21:54:56.360Z,41.85
2023-11-02T21:57:25.487Z,41.58
2023-11-02T21:59:54.830Z,36.42
2023-11-02T22:02:23.871Z,45.25
2023-11-02T22:04:53.305Z,38.42
2023-11-02T22:07:23.919Z,41.85
2023-11-02T22:09:53.760Z,42.08
2023-11-02T22:12:22.808Z,41.38
2023-11-02T22:14:52.242Z,37.42
2023-11-02T22:17:21.542Z,48.15
2023-11-02T22:19:51.017Z,42.90
2023-11-02T22:22:20.041Z,41.10
2023-11-02T22:24:50.754Z,39.10
2023-11-02T22:27:19.781Z,38.72
2023-11-02T22:29:49.029Z,41.53
2023-11-02T22:32:18.056Z,31.75
2023-11-02T22:34:47.476Z,36.88
2023-11-02T22:37:17.398Z,27.45
2023-11-02T22:39:46.882Z,27.92
2023-11-02T22:42:17.420Z,35.35
2023-11-02T22:44:47.772Z,30.20
2023-11-02T22:47:16.698Z,29.48
2023-11-02T22:49:46.562Z,26.65
2023-11-02T22:52:15.513Z,30.48
2023-11-02T22:54:46.055Z,28.30
2023-11-02T22:57:16.416Z,21.48
2023-11-02T22:59:45.770Z,25.83
2023-11-02T23:02:15.700Z,27.15
2023-11-02T23:04:45.842Z,24.65
2023-11-02T23:07:15.405Z,26.45
2023-11-02T23:09:44.454Z,25.60
2023-11-02T23:12:13.736Z,28.98
2023-11-02T23:14:44.076Z,24.58
2023-11-02T23:17:13.412Z,24.37
2023-11-02T23:19:43.185Z,26.85
2023-11-02T23:22:12.579Z,24.00
2023-11-02T23:24:41.728Z,26.73
2023-11-02T23:27:11.104Z,27.98
2023-11-02T23:29:40.080Z,21.25
2023-11-02T23:32:10.764Z,23.85
2023-11-02T23:34:40.146Z,28.15
2023-11-02T23:37:09.660Z,28.48
2023-11-02T23:39:40.605Z,27.42
2023-11-02T23:42:10.023Z,27.85
2023-11-02T23:44:40.159Z,25.30
2023-11-02T23:47:11.481Z,24.33
2023-11-02T23:49:43.259Z,30.50
2023-11-02T23:52:12.671Z,21.48
2023-11-02T23:54:42.972Z,21.58
2023-11-02T23:57:11.239Z,18.50
2023-11-02T23:59:41.689Z,27.20
